createdAt,value
2017-07-28T00:00:09.348Z,96124.77
2017-07-28T00:02:35.196Z,96137.94
2017-07-28T00:05:01.043Z,96152.55
2017-07-28T00:07:26.955Z,96158.27
2017-07-28T00:09:52.847Z,96153.32
2017-07-28T00:12:18.682Z,96131.00
2017-07-28T00:14:44.543Z,96166.70
2017-07-28T00:17:10.350Z,96161.03
2017-07-28T00:19:36.196Z,96159.13
2017-07-28T00:22:02.058Z,96167.05
2017-07-28T00:24:27.979Z,96170.39
2017-07-28T00:26:53.789Z,96171.33
2017-07-28T00:29:19.660Z,96155.78
2017-07-28T00:31:45.500Z,96166.58
2017-07-28T00:34:11.328Z,96168.31
2017-07-28T00:36:37.211Z,96173.41
2017-07-28T00:39:03.116Z,96168.31
2017-07-28T00:41:28.993Z,96165.95
2017-07-28T00:43:54.852Z,96165.61
2017-07-28T00:46:20.754Z,96166.92
2017-07-28T00:48:46.629Z,96168.99
2017-07-28T00:51:12.453Z,96170.18
2017-07-28T00:53:38.305Z,96167.42
2017-07-28T00:56:04.265Z,96160.59
2017-07-28T00:58:30.075Z,96145.09
2017-07-28T01:00:55.882Z,96158.52
2017-07-28T01:03:21.741Z,96160.17
2017-07-28T01:05:47.548Z,96160.77
2017-07-28T01:08:13.381Z,96167.00
2017-07-28T01:10:39.187Z,96169.36
2017-07-28T01:13:05.002Z,96166.60
2017-07-28T01:15:30.909Z,96170.78
2017-07-28T01:17:56.885Z,96181.03
2017-07-28T01:20:22.823Z,96164.80
2017-07-28T01:22:48.671Z,96157.47
2017-07-28T01:25:14.528Z,96181.48
2017-07-28T01:27:40.343Z,96182.58
2017-07-28T01:30:06.161Z,96183.83
2017-07-28T01:32:32.011Z,96182.69
2017-07-28T01:34:57.950Z,96191.03
2017-07-28T01:37:23.769Z,96175.22
2017-07-28T01:39:49.667Z,96194.84
2017-07-28T01:42:15.500Z,96192.22
2017-07-28T01:44:41.416Z,96203.41
2017-07-28T01:47:07.300Z,96188.21
2017-07-28T01:49:33.118Z,96188.66
2017-07-28T01:51:58.989Z,96194.81
2017-07-28T01:54:24.962Z,96196.74
2017-07-28T01:56:50.781Z,96191.72
2017-07-28T01:59:16.644Z,96193.73
2017-07-28T02:01:42.546Z,96194.17
2017-07-28T02:04:08.474Z,96193.18
2017-07-28T02:06:34.435Z,96204.70
2017-07-28T02:09:00.245Z,96202.50
2017-07-28T02:11:26.063Z,96213.55
2017-07-28T02:13:51.902Z,96207.25
2017-07-28T02:16:17.746Z,96208.88
2017-07-28T02:18:43.710Z,96213.46
2017-07-28T02:21:09.612Z,96217.81
2017-07-28T02:23:35.559Z,96219.67
2017-07-28T02:26:01.393Z,96225.97
2017-07-28T02:28:27.248Z,96224.34
2017-07-28T02:30:53.276Z,96228.35
2017-07-28T02:33:19.090Z,96225.77
2017-07-28T02:35:45.060Z,96224.34
2017-07-28T02:38:10.916Z,96222.09
2017-07-28T02:40:36.751Z,96224.21
2017-07-28T02:43:02.578Z,96224.48
2017-07-28T02:45:28.627Z,96220.03
2017-07-28T02:47:54.604Z,96224.73
2017-07-28T02:50:20.952Z,96229.99
2017-07-28T02:52:46.783Z,96207.05
2017-07-28T02:55:12.643Z,96210.86
2017-07-28T02:57:38.497Z,96233.73
2017-07-28T03:00:04.557Z,96234.97
2017-07-28T03:02:30.475Z,96244.95
2017-07-28T03:04:56.319Z,96251.94
2017-07-28T03:07:22.223Z,96250.28
2017-07-28T03:09:48.049Z,96255.36
2017-07-28T03:12:13.997Z,96263.28
2017-07-28T03:14:39.838Z,96256.47
2017-07-28T03:17:05.680Z,96258.52
2017-07-28T03:19:31.637Z,96255.81
2017-07-28T03:21:57.509Z,96257.74
2017-07-28T03:24:23.345Z,96261.55
2017-07-28T03:26:49.282Z,96266.42
2017-07-28T03:29:15.353Z,96271.42
2017-07-28T03:31:41.205Z,96274.34
2017-07-28T03:34:07.031Z,96272.85
2017-07-28T03:36:33.019Z,96275.19
2017-07-28T03:38:58.811Z,96282.20
2017-07-28T03:41:24.645Z,96288.73
2017-07-28T03:43:50.518Z,96294.06
2017-07-28T03:46:17.189Z,96297.75
2017-07-28T03:48:43.129Z,96291.89
2017-07-28T03:51:08.980Z,96295.39
2017-07-28T03:53:34.799Z,96303.30
2017-07-28T03:56:00.600Z,96306.80
2017-07-28T03:58:26.653Z,96298.66
2017-07-28T04:00:52.565Z,96314.70
2017-07-28T04:03:18.413Z,96313.30
2017-07-28T04:05:44.329Z,96312.84
2017-07-28T04:08:10.249Z,96318.27
2017-07-28T04:10:36.057Z,96323.00
2017-07-28T04:13:01.881Z,96316.66
2017-07-28T04:15:27.792Z,96312.97
2017-07-28T04:17:53.762Z,96314.19
2017-07-28T04:20:19.597Z,96315.98
2017-07-28T04:22:45.397Z,96315.98
2017-07-28T04:25:11.249Z,96315.04
2017-07-28T04:27:37.085Z,96316.14
2017-07-28T04:30:03.085Z,96329.06
2017-07-28T04:32:28.898Z,96322.83
2017-07-28T04:34:54.725Z,96321.67
2017-07-28T04:37:20.572Z,96327.69
2017-07-28T04:39:46.549Z,96333.04
2017-07-28T04:42:12.340Z,96339.84
2017-07-28T04:44:38.152Z,96320.88
2017-07-28T04:47:03.969Z,96340.53
2017-07-28T04:49:29.825Z,96332.92
2017-07-28T04:51:55.668Z,96336.13
2017-07-28T04:54:21.469Z,96344.80
2017-07-28T04:56:47.292Z,96361.41
2017-07-28T04:59:13.108Z,96365.73
2017-07-28T05:01:38.893Z,96359.14
2017-07-28T05:04:04.697Z,96356.72
2017-07-28T05:06:32.166Z,96366.10
2017-07-28T05:08:58.005Z,96372.08
2017-07-28T05:11:23.836Z,96365.56
2017-07-28T05:13:49.677Z,96369.27
2017-07-28T05:16:15.460Z,96373.03
2017-07-28T05:18:41.269Z,96379.38
2017-07-28T05:21:07.109Z,96375.98
2017-07-28T05:23:32.929Z,96378.36
2017-07-28T05:25:58.765Z,96380.19
2017-07-28T05:28:24.565Z,96385.39
2017-07-28T05:30:50.381Z,96386.67
2017-07-28T05:33:16.187Z,96379.50
2017-07-28T05:35:56.841Z,96379.67
2017-07-28T05:38:22.673Z,96379.55
2017-07-28T05:40:48.531Z,96373.13
2017-07-28T05:43:14.382Z,96373.84
2017-07-28T05:45:40.200Z,96381.10
2017-07-28T05:48:06.012Z,96388.70
2017-07-28T05:50:31.929Z,96386.02
2017-07-28T05:52:57.815Z,96382.30
2017-07-28T05:55:23.653Z,96391.48
2017-07-28T05:57:49.481Z,96364.29
2017-07-28T06:00:15.293Z,96386.35
2017-07-28T06:02:41.117Z,96364.92
2017-07-28T06:05:06.929Z,96391.27
2017-07-28T06:07:32.781Z,96414.18
2017-07-28T06:09:58.607Z,96406.23
2017-07-28T06:12:24.453Z,96411.36
2017-07-28T06:14:50.289Z,96412.59
2017-07-28T06:17:16.086Z,96417.53
2017-07-28T06:19:41.964Z,96415.91
2017-07-28T06:22:07.847Z,96418.31
2017-07-28T06:24:33.673Z,96412.95
2017-07-28T06:26:59.517Z,96421.81
2017-07-28T06:29:25.307Z,96420.70
2017-07-28T06:31:51.149Z,96419.94
2017-07-28T06:34:17.036Z,96413.23
2017-07-28T06:36:42.829Z,96427.16
2017-07-28T06:39:08.618Z,96430.02
2017-07-28T06:41:34.445Z,96431.50
2017-07-28T06:44:00.266Z,96434.59
2017-07-28T06:46:26.072Z,96438.20
2017-07-28T06:48:51.934Z,96443.02
2017-07-28T06:51:17.753Z,96440.20
2017-07-28T06:53:43.761Z,96447.58
2017-07-28T06:56:09.926Z,96449.06
2017-07-28T06:58:35.740Z,96459.92
2017-07-28T07:01:01.561Z,96459.20
2017-07-28T07:03:27.393Z,96462.94
2017-07-28T07:05:53.205Z,96455.09
2017-07-28T07:08:19.112Z,96470.03
2017-07-28T07:10:44.934Z,96474.55
2017-07-28T07:13:10.746Z,96470.83
2017-07-28T07:15:36.573Z,96476.11
2017-07-28T07:18:02.382Z,96483.20
2017-07-28T07:20:28.221Z,96473.86
2017-07-28T07:22:54.164Z,96475.36
2017-07-28T07:25:27.164Z,96478.16
2017-07-28T07:27:52.969Z,96473.13
2017-07-28T07:30:18.768Z,96453.50
2017-07-28T07:32:44.617Z,96470.69
2017-07-28T07:35:10.461Z,96471.30
2017-07-28T07:37:36.253Z,96479.97
2017-07-28T07:40:02.117Z,96483.81
2017-07-28T07:42:27.945Z,96487.24
2017-07-28T07:44:53.748Z,96489.84
2017-07-28T07:47:19.591Z,96485.01
2017-07-28T07:49:45.628Z,96486.97
2017-07-28T07:52:11.538Z,96494.95
2017-07-28T07:54:37.364Z,96492.14
2017-07-28T07:57:03.237Z,96490.77
2017-07-28T07:59:29.091Z,96488.97
2017-07-28T08:01:54.993Z,96485.03
2017-07-28T08:04:20.853Z,96480.64
2017-07-28T08:06:46.678Z,96462.78
2017-07-28T08:09:12.512Z,96493.66
2017-07-28T08:11:38.313Z,96492.94
2017-07-28T08:14:04.120Z,96491.28
2017-07-28T08:16:29.932Z,96491.65
2017-07-28T08:18:55.757Z,96506.19
2017-07-28T08:21:21.600Z,96491.72
2017-07-28T08:23:47.414Z,96492.47
2017-07-28T08:26:13.261Z,96493.97
2017-07-28T08:28:39.048Z,96500.45
2017-07-28T08:31:04.853Z,96501.34
2017-07-28T08:33:30.693Z,96500.67
2017-07-28T08:35:56.546Z,96513.42
2017-07-28T08:38:22.356Z,96508.44
2017-07-28T08:40:48.197Z,96505.59
2017-07-28T08:43:14.014Z,96516.14
2017-07-28T08:45:39.797Z,96509.40
2017-07-28T08:48:05.677Z,96514.38
2017-07-28T08:50:31.578Z,96515.19
2017-07-28T08:52:57.409Z,96521.33
2017-07-28T08:55:23.241Z,96526.28
2017-07-28T08:57:49.045Z,96535.05
2017-07-28T09:00:14.973Z,96525.27
2017-07-28T09:02:40.883Z,96544.52
2017-07-28T09:05:06.706Z,96549.61
2017-07-28T09:07:32.556Z,96548.20
2017-07-28T09:09:58.370Z,96541.36
2017-07-28T09:12:24.157Z,96560.27
2017-07-28T09:14:50.013Z,96566.02
2017-07-28T09:17:15.859Z,96571.97
2017-07-28T09:19:41.667Z,96573.76
2017-07-28T09:22:07.501Z,96569.09
2017-07-28T09:24:33.299Z,96562.75
2017-07-28T09:26:59.129Z,96564.13
2017-07-28T09:29:24.981Z,96573.70
2017-07-28T09:31:50.776Z,96585.13
2017-07-28T09:34:16.572Z,96569.55
2017-07-28T09:36:42.401Z,96565.71
2017-07-28T09:39:08.221Z,96554.09
2017-07-28T09:41:34.066Z,96563.30
2017-07-28T09:43:59.904Z,96561.49
2017-07-28T09:46:25.706Z,96565.00
2017-07-28T09:48:51.545Z,96555.42
2017-07-28T09:51:17.445Z,96570.87
2017-07-28T09:53:43.280Z,96564.07
2017-07-28T09:56:09.151Z,96566.45
2017-07-28T09:58:34.973Z,96559.48
2017-07-28T10:01:01.087Z,96561.02
2017-07-28T10:03:26.953Z,96555.69
2017-07-28T10:05:52.774Z,96562.98
2017-07-28T10:08:18.613Z,96565.45
2017-07-28T10:10:44.418Z,96561.89
2017-07-28T10:13:10.275Z,96559.80
2017-07-28T10:15:36.137Z,96575.81
2017-07-28T10:18:01.965Z,96576.11
2017-07-28T10:20:27.802Z,96572.34
2017-07-28T10:22:53.739Z,96578.22
2017-07-28T10:25:19.554Z,96574.73
2017-07-28T10:27:45.406Z,96574.83
2017-07-28T10:30:11.236Z,96570.13
2017-07-28T10:32:37.066Z,96571.62
2017-07-28T10:35:02.877Z,96565.27
2017-07-28T10:37:28.700Z,96571.84
2017-07-28T10:39:54.530Z,96573.81
2017-07-28T10:42:20.404Z,96568.16
2017-07-28T10:44:46.278Z,96570.80
2017-07-28T10:47:12.216Z,96538.20
2017-07-28T10:49:38.192Z,96574.94
2017-07-28T10:52:04.038Z,96580.14
2017-07-28T10:54:29.861Z,96573.25
2017-07-28T10:56:55.705Z,96576.73
2017-07-28T10:59:21.674Z,96570.11
2017-07-28T11:01:47.516Z,96574.31
2017-07-28T11:04:13.322Z,96573.23
2017-07-28T11:06:39.144Z,96572.85
2017-07-28T11:09:04.980Z,96574.63
2017-07-28T11:11:30.804Z,96570.71
2017-07-28T11:13:56.749Z,96570.45
2017-07-28T11:16:22.586Z,96574.13
2017-07-28T11:18:48.420Z,96570.73
2017-07-28T11:21:14.263Z,96568.36
2017-07-28T11:23:40.196Z,96576.38
2017-07-28T11:26:06.052Z,96573.84
2017-07-28T11:28:31.857Z,96567.59
2017-07-28T11:30:57.738Z,96567.56
2017-07-28T11:33:23.536Z,96572.19
2017-07-28T11:35:49.370Z,96576.94
2017-07-28T11:38:15.222Z,96575.72
2017-07-28T11:40:41.228Z,96576.29
2017-07-28T11:43:07.088Z,96570.53
2017-07-28T11:45:33.057Z,96572.09
2017-07-28T11:47:58.876Z,96580.66
2017-07-28T11:50:24.717Z,96571.16
2017-07-28T11:52:50.522Z,96573.14
2017-07-28T11:55:16.380Z,96575.88
2017-07-28T11:57:42.270Z,96568.98
2017-07-28T12:00:08.212Z,96568.17
2017-07-28T12:02:36.958Z,96571.03
2017-07-28T12:05:02.814Z,96555.20
2017-07-28T12:07:28.621Z,96555.61
2017-07-28T12:09:54.513Z,96554.61
2017-07-28T12:12:20.363Z,96565.06
2017-07-28T12:14:46.282Z,96571.81
2017-07-28T12:17:12.201Z,96554.30
2017-07-28T12:19:38.032Z,96572.75
2017-07-28T12:22:03.965Z,96567.88
2017-07-28T12:24:29.825Z,96571.48
2017-07-28T12:26:55.630Z,96573.17
2017-07-28T12:29:21.453Z,96571.31
2017-07-28T12:31:47.309Z,96578.33
2017-07-28T12:34:13.145Z,96568.46
2017-07-28T12:36:39.068Z,96565.26
2017-07-28T12:39:04.916Z,96554.31
2017-07-28T12:41:30.761Z,96563.23
2017-07-28T12:43:56.573Z,96560.73
2017-07-28T12:46:23.518Z,96552.09
2017-07-28T12:48:49.400Z,96555.77
2017-07-28T12:51:15.228Z,96555.06
2017-07-28T12:53:41.065Z,96553.78
2017-07-28T12:56:06.892Z,96564.16
2017-07-28T12:58:32.715Z,96556.75
2017-07-28T13:00:58.567Z,96554.77
2017-07-28T13:03:24.365Z,96560.65
2017-07-28T13:05:50.213Z,96559.58
2017-07-28T13:08:16.127Z,96553.56
2017-07-28T13:10:41.957Z,96563.75
2017-07-28T13:13:07.813Z,96555.20
2017-07-28T13:15:33.713Z,96551.61
2017-07-28T13:17:59.603Z,96551.39
2017-07-28T13:20:25.434Z,96547.63
2017-07-28T13:22:51.282Z,96563.60
2017-07-28T13:25:17.095Z,96553.14
2017-07-28T13:27:42.924Z,96516.84
2017-07-28T13:30:08.782Z,96549.91
2017-07-28T13:32:34.610Z,96548.27
2017-07-28T13:35:00.412Z,96555.77
2017-07-28T13:37:26.209Z,96559.11
2017-07-28T13:39:52.029Z,96561.17
2017-07-28T13:42:17.868Z,96552.12
2017-07-28T13:44:43.712Z,96554.78
2017-07-28T13:47:09.576Z,96566.11
2017-07-28T13:49:35.526Z,96560.73
2017-07-28T13:52:01.367Z,96552.19
2017-07-28T13:54:27.194Z,96555.44
2017-07-28T13:56:53.114Z,96563.65
2017-07-28T13:59:18.967Z,96565.63
2017-07-28T14:01:44.783Z,96560.28
2017-07-28T14:04:10.612Z,96558.84
2017-07-28T14:06:36.460Z,96555.70
2017-07-28T14:09:02.298Z,96555.48
2017-07-28T14:11:28.147Z,96557.63
2017-07-28T14:13:54.052Z,96557.29
2017-07-28T14:16:19.872Z,96540.20
2017-07-28T14:18:45.716Z,96548.05
2017-07-28T14:21:11.580Z,96534.28
2017-07-28T14:23:37.373Z,96561.95
2017-07-28T14:26:03.221Z,96548.81
2017-07-28T14:28:29.016Z,96552.42
2017-07-28T14:30:54.859Z,96555.13
2017-07-28T14:33:20.666Z,96544.52
2017-07-28T14:35:46.519Z,96546.23
2017-07-28T14:38:12.427Z,96557.97
2017-07-28T14:40:38.331Z,96552.38
2017-07-28T14:43:04.152Z,96549.53
2017-07-28T14:45:29.948Z,96553.84
2017-07-28T14:47:55.769Z,96549.63
2017-07-28T14:50:21.597Z,96555.61
2017-07-28T14:52:47.424Z,96550.95
2017-07-28T14:55:13.231Z,96547.15
2017-07-28T14:57:39.063Z,96548.08
2017-07-28T15:00:04.906Z,96549.31
2017-07-28T15:02:30.814Z,96551.28
2017-07-28T15:04:56.671Z,96545.95
2017-07-28T15:07:22.525Z,96543.94
2017-07-28T15:09:48.330Z,96539.56
2017-07-28T15:12:14.169Z,96538.29
2017-07-28T15:14:40.010Z,96544.41
2017-07-28T15:17:05.828Z,96540.50
2017-07-28T15:19:31.677Z,96534.59
2017-07-28T15:21:57.522Z,96530.23
2017-07-28T15:24:23.350Z,96540.27
2017-07-28T15:26:49.241Z,96532.45
2017-07-28T15:29:15.091Z,96538.92
2017-07-28T15:31:40.923Z,96536.56
2017-07-28T15:34:06.724Z,96531.19
2017-07-28T15:36:32.544Z,96542.86
2017-07-28T15:38:58.334Z,96538.54
2017-07-28T15:41:24.186Z,96530.12
2017-07-28T15:43:49.996Z,96534.28
2017-07-28T15:46:15.814Z,96525.13
2017-07-28T15:48:41.649Z,96537.43
2017-07-28T15:51:07.436Z,96550.02
2017-07-28T15:53:33.265Z,96548.00
2017-07-28T15:55:59.139Z,96543.63
2017-07-28T15:58:25.093Z,96544.31
2017-07-28T16:00:50.931Z,96546.11
2017-07-28T16:03:16.741Z,96545.48
2017-07-28T16:05:42.567Z,96542.55
2017-07-28T16:08:08.391Z,96536.30
2017-07-28T16:10:34.230Z,96536.48
2017-07-28T16:13:00.072Z,96535.61
2017-07-28T16:15:25.888Z,96531.48
2017-07-28T16:17:51.719Z,96532.17
2017-07-28T16:20:17.631Z,96540.39
2017-07-28T16:22:43.441Z,96539.73
2017-07-28T16:25:09.290Z,96529.57
2017-07-28T16:27:35.111Z,96535.62
2017-07-28T16:30:00.999Z,96541.25
2017-07-28T16:32:26.850Z,96542.92
2017-07-28T16:34:52.725Z,96543.84
2017-07-28T16:37:18.688Z,96546.11
2017-07-28T16:39:44.589Z,96544.50
2017-07-28T16:42:10.428Z,96544.36
2017-07-28T16:44:36.284Z,96547.87
2017-07-28T16:47:02.126Z,96545.70
2017-07-28T16:49:27.933Z,96543.54
2017-07-28T16:51:53.744Z,96548.11
2017-07-28T16:54:19.576Z,96551.38
2017-07-28T16:56:45.371Z,96550.81
2017-07-28T16:59:11.213Z,96555.74
2017-07-28T17:01:37.031Z,96554.42
2017-07-28T17:04:02.830Z,96558.78
2017-07-28T17:06:28.683Z,96552.84
2017-07-28T17:08:54.481Z,96545.72
2017-07-28T17:11:20.282Z,96548.75
2017-07-28T17:13:46.120Z,96547.73
2017-07-28T17:16:11.948Z,96558.42
2017-07-28T17:18:37.745Z,96553.94
2017-07-28T17:21:03.568Z,96551.64
2017-07-28T17:23:29.379Z,96541.78
2017-07-28T17:25:55.249Z,96549.53
2017-07-28T17:28:21.158Z,96544.11
2017-07-28T17:30:46.973Z,96543.05
2017-07-28T17:33:12.870Z,96541.08
2017-07-28T17:35:38.737Z,96532.97
2017-07-28T17:38:04.558Z,96533.16
2017-07-28T17:40:30.425Z,96529.56
2017-07-28T17:42:56.236Z,96554.28
2017-07-28T17:45:22.099Z,96555.36
2017-07-28T17:47:49.442Z,96564.78
2017-07-28T17:50:15.263Z,96562.45
2017-07-28T17:52:41.115Z,96567.20
2017-07-28T17:55:06.997Z,96561.17
2017-07-28T17:57:32.843Z,96555.69
2017-07-28T17:59:58.761Z,96559.27
2017-07-28T18:02:24.601Z,96564.90
2017-07-28T18:04:50.408Z,96568.62
2017-07-28T18:07:16.228Z,96568.51
2017-07-28T18:09:42.073Z,96567.39
2017-07-28T18:12:07.866Z,96566.95
2017-07-28T18:14:33.659Z,96564.39
2017-07-28T18:16:59.500Z,96570.07
2017-07-28T18:19:25.297Z,96563.61
2017-07-28T18:21:51.085Z,96580.20
2017-07-28T18:24:16.959Z,96578.87
2017-07-28T18:26:42.777Z,96558.19
2017-07-28T18:29:08.633Z,96587.52
2017-07-28T18:31:34.440Z,96590.88
2017-07-28T18:34:00.228Z,96586.85
2017-07-28T18:36:26.077Z,96595.61
2017-07-28T18:38:52.673Z,96592.91
2017-07-28T18:41:18.502Z,96592.58
2017-07-28T18:43:44.370Z,96600.57
2017-07-28T18:46:10.177Z,96596.48
2017-07-28T18:48:36.024Z,96589.87
2017-07-28T18:51:01.829Z,96599.46
2017-07-28T18:53:27.718Z,96598.75
2017-07-28T18:55:53.526Z,96593.97
2017-07-28T18:58:19.407Z,96607.00
2017-07-28T19:00:45.265Z,96598.64
2017-07-28T19:03:11.105Z,96584.45
2017-07-28T19:05:36.910Z,96610.02
2017-07-28T19:08:02.713Z,96618.99
2017-07-28T19:10:28.545Z,96593.72
2017-07-28T19:12:54.390Z,96624.70
2017-07-28T19:15:20.177Z,96633.56
2017-07-28T19:17:45.993Z,96642.23
2017-07-28T19:20:11.846Z,96646.87
2017-07-28T19:22:37.645Z,96652.90
2017-07-28T19:25:03.501Z,96635.59
2017-07-28T19:27:29.468Z,96651.47
2017-07-28T19:29:55.346Z,96634.02
2017-07-28T19:32:21.185Z,96648.13
2017-07-28T19:34:47.160Z,96649.11
2017-07-28T19:37:12.972Z,96651.02
2017-07-28T19:39:38.830Z,96657.04
2017-07-28T19:42:04.796Z,96659.38
2017-07-28T19:44:30.725Z,96664.46
2017-07-28T19:46:57.439Z,96668.03
2017-07-28T19:49:23.400Z,96670.95
2017-07-28T19:51:49.336Z,96675.14
2017-07-28T19:54:15.175Z,96667.27
2017-07-28T19:56:41.072Z,96669.97
2017-07-28T19:59:06.939Z,96667.21
2017-07-28T20:01:32.802Z,96653.05
2017-07-28T20:03:58.700Z,96664.03
2017-07-28T20:06:24.665Z,96661.88
2017-07-28T20:08:50.514Z,96658.39
2017-07-28T20:11:16.508Z,96656.84
2017-07-28T20:13:42.369Z,96653.45
2017-07-28T20:16:08.436Z,96657.41
2017-07-28T20:18:34.294Z,96660.09
2017-07-28T20:21:00.124Z,96666.09
2017-07-28T20:23:26.047Z,96651.83
2017-07-28T20:25:51.883Z,96672.40
2017-07-28T20:28:17.783Z,96677.11
2017-07-28T20:30:43.765Z,96682.70
2017-07-28T20:33:10.229Z,96658.00
2017-07-28T20:35:36.180Z,96683.92
2017-07-28T20:38:02.107Z,96677.80
2017-07-28T20:40:27.989Z,96686.16
2017-07-28T20:42:53.915Z,96688.73
2017-07-28T20:45:19.839Z,96685.05
2017-07-28T20:47:45.873Z,96687.34
2017-07-28T20:50:11.909Z,96685.27
2017-07-28T20:52:37.848Z,96684.38
2017-07-28T20:55:03.698Z,96677.99
2017-07-28T20:57:29.517Z,96681.10
2017-07-28T20:59:55.415Z,96679.23
2017-07-28T21:02:21.363Z,96675.92
2017-07-28T21:04:47.296Z,96673.30
2017-07-28T21:07:13.148Z,96658.02
2017-07-28T21:09:39.048Z,96678.70
2017-07-28T21:12:04.992Z,96671.75
2017-07-28T21:14:30.830Z,96674.28
2017-07-28T21:16:56.638Z,96673.31
2017-07-28T21:19:22.515Z,96679.52
2017-07-28T21:21:48.548Z,96687.45
2017-07-28T21:24:14.459Z,96681.31
2017-07-28T21:26:40.327Z,96678.68
2017-07-28T21:29:06.162Z,96677.16
2017-07-28T21:31:31.991Z,96677.05
2017-07-28T21:33:57.822Z,96671.63
2017-07-28T21:36:23.800Z,96667.80
2017-07-28T21:38:49.636Z,96670.83
2017-07-28T21:41:15.792Z,96667.34
2017-07-28T21:43:41.626Z,96674.45
2017-07-28T21:46:07.460Z,96675.59
2017-07-28T21:48:33.293Z,96678.58
2017-07-28T21:51:00.224Z,96680.74
2017-07-28T21:53:26.208Z,96679.34
2017-07-28T21:55:52.036Z,96687.80
2017-07-28T21:58:17.939Z,96689.81
2017-07-28T22:00:43.905Z,96684.83
2017-07-28T22:03:09.826Z,96680.62
2017-07-28T22:05:35.649Z,96676.66
2017-07-28T22:08:01.464Z,96671.73
2017-07-28T22:10:27.295Z,96671.39
2017-07-28T22:12:53.124Z,96662.16
2017-07-28T22:15:19.042Z,96654.57
2017-07-28T22:17:44.942Z,96682.48
2017-07-28T22:20:10.771Z,96684.02
2017-07-28T22:22:36.717Z,96674.71
2017-07-28T22:25:02.629Z,96674.23
2017-07-28T22:27:28.541Z,96662.50
2017-07-28T22:29:54.465Z,96665.75
2017-07-28T22:32:20.332Z,96658.34
2017-07-28T22:34:46.223Z,96662.21
2017-07-28T22:37:12.235Z,96660.97
2017-07-28T22:39:38.115Z,96661.30
2017-07-28T22:42:03.952Z,96656.23
2017-07-28T22:44:29.802Z,96664.97
2017-07-28T22:46:55.660Z,96654.64
2017-07-28T22:49:21.540Z,96665.19
2017-07-28T22:51:47.442Z,96672.80
2017-07-28T22:54:13.278Z,96667.19
2017-07-28T22:56:39.149Z,96665.84
2017-07-28T22:59:05.107Z,96664.84
2017-07-28T23:01:30.944Z,96647.98
2017-07-28T23:03:57.071Z,96670.02
2017-07-28T23:06:22.967Z,96676.38
2017-07-28T23:08:48.796Z,96652.48
2017-07-28T23:11:14.674Z,96678.11
2017-07-28T23:13:40.619Z,96671.95
2017-07-28T23:16:06.466Z,96670.71
2017-07-28T23:18:32.317Z,96668.30
2017-07-28T23:20:58.364Z,96674.47
2017-07-28T23:23:24.342Z,96673.45
2017-07-28T23:25:50.182Z,96666.16
2017-07-28T23:28:16.003Z,96668.27
2017-07-28T23:30:41.854Z,96667.17
2017-07-28T23:33:07.796Z,96665.30
2017-07-28T23:35:33.637Z,96664.88
2017-07-28T23:37:59.472Z,96662.84
2017-07-28T23:40:25.332Z,96660.81
2017-07-28T23:42:51.258Z,96666.64
2017-07-28T23:45:17.187Z,96669.25
2017-07-28T23:47:43.091Z,96665.84
2017-07-28T23:50:08.957Z,96664.44
2017-07-28T23:52:34.832Z,96666.28
2017-07-28T23:55:00.775Z,96663.37
2017-07-28T23:57:26.608Z,96658.42
2017-07-28T23:59:52.535Z,96664.42
